sensor_id;sensor_type;location;lat;lon;timestamp;P1;durP1;ratioP1;P2;durP2;ratioP2
5967;SDS011;3010;51.028;4.170;2022-11-04T00:01:18;15.73;;;5.83;;
5967;SDS011;3010;51.028;4.170;2022-11-04T00:03:44;8.00;;;5.43;;
5967;SDS011;3010;51.028;4.170;2022-11-04T00:06:11;8.63;;;4.63;;
5967;SDS011;3010;51.028;4.170;2022-11-04T00:08:38;6.60;;;4.50;;
5967;SDS011;3010;51.028;4.170;2022-11-04T00:11:04;6.93;;;5.00;;
5967;SDS011;3010;51.028;4.170;2022-11-04T00:13:49;10.07;;;4.70;;
5967;SDS011;3010;51.028;4.170;2022-11-04T00:16:16;6.13;;;4.40;;
5967;SDS011;3010;51.028;4.170;2022-11-04T00:19:01;8.93;;;4.53;;
5967;SDS011;3010;51.028;4.170;2022-11-04T00:21:27;7.70;;;4.47;;
5967;SDS011;3010;51.028;4.170;2022-11-04T00:24:12;5.73;;;4.10;;
5967;SDS011;3010;51.028;4.170;2022-11-04T00:26:54;7.43;;;4.47;;
5967;SDS011;3010;51.028;4.170;2022-11-04T00:29:39;11.17;;;4.07;;
5967;SDS011;3010;51.028;4.170;2022-11-04T00:32:06;7.72;;;4.87;;
5967;SDS011;3010;51.028;4.170;2022-11-04T00:34:50;5.77;;;4.03;;
5967;SDS011;3010;51.028;4.170;2022-11-04T00:37:17;7.97;;;3.90;;
5967;SDS011;3010;51.028;4.170;2022-11-04T00:39:44;7.10;;;4.20;;
5967;SDS011;3010;51.028;4.170;2022-11-04T00:42:10;8.67;;;4.20;;
5967;SDS011;3010;51.028;4.170;2022-11-04T00:44:37;5.30;;;3.77;;
5967;SDS011;3010;51.028;4.170;2022-11-04T00:47:03;7.37;;;3.93;;
5967;SDS011;3010;51.028;4.170;2022-11-04T00:49:30;10.02;;;5.40;;
5967;SDS011;3010;51.028;4.170;2022-11-04T00:51:56;10.10;;;4.70;;
5967;SDS011;3010;51.028;4.170;2022-11-04T00:54:23;9.40;;;4.80;;
5967;SDS011;3010;51.028;4.170;2022-11-04T00:56:50;10.60;;;4.83;;
5967;SDS011;3010;51.028;4.170;2022-11-04T00:59:16;6.87;;;5.00;;
5967;SDS011;3010;51.028;4.170;2022-11-04T01:01:43;8.70;;;4.33;;
5967;SDS011;3010;51.028;4.170;2022-11-04T01:04:09;7.03;;;3.90;;
5967;SDS011;3010;51.028;4.170;2022-11-04T01:06:36;9.40;;;3.70;;
5967;SDS011;3010;51.028;4.170;2022-11-04T01:09:04;8.07;;;3.50;;
5967;SDS011;3010;51.028;4.170;2022-11-04T01:11:29;10.70;;;4.70;;
5967;SDS011;3010;51.028;4.170;2022-11-04T01:13:56;6.83;;;3.80;;
5967;SDS011;3010;51.028;4.170;2022-11-04T01:16:23;9.07;;;3.77;;
5967;SDS011;3010;51.028;4.170;2022-11-04T01:18:50;8.37;;;3.47;;
5967;SDS011;3010;51.028;4.170;2022-11-04T01:21:17;13.50;;;3.73;;
5967;SDS011;3010;51.028;4.170;2022-11-04T01:23:44;10.67;;;3.70;;
5967;SDS011;3010;51.028;4.170;2022-11-04T01:26:11;17.07;;;3.50;;
5967;SDS011;3010;51.028;4.170;2022-11-04T01:28:37;10.17;;;3.60;;
5967;SDS011;3010;51.028;4.170;2022-11-04T01:31:10;5.93;;;3.60;;
5967;SDS011;3010;51.028;4.170;2022-11-04T01:33:45;7.77;;;3.40;;
5967;SDS011;3010;51.028;4.170;2022-11-04T01:36:11;8.83;;;3.03;;
5967;SDS011;3010;51.028;4.170;2022-11-04T01:38:38;9.68;;;4.22;;
5967;SDS011;3010;51.028;4.170;2022-11-04T01:41:05;10.83;;;3.97;;
5967;SDS011;3010;51.028;4.170;2022-11-04T01:43:41;9.50;;;3.17;;
5967;SDS011;3010;51.028;4.170;2022-11-04T01:46:11;11.17;;;3.53;;
5967;SDS011;3010;51.028;4.170;2022-11-04T01:48:36;6.67;;;3.20;;
5967;SDS011;3010;51.028;4.170;2022-11-04T01:51:03;8.77;;;3.27;;
5967;SDS011;3010;51.028;4.170;2022-11-04T01:53:31;6.37;;;3.03;;
5967;SDS011;3010;51.028;4.170;2022-11-04T01:55:57;5.20;;;2.87;;
5967;SDS011;3010;51.028;4.170;2022-11-04T01:58:24;3.63;;;2.70;;
5967;SDS011;3010;51.028;4.170;2022-11-04T02:00:49;9.53;;;3.50;;
5967;SDS011;3010;51.028;4.170;2022-11-04T02:03:17;10.33;;;3.53;;
5967;SDS011;3010;51.028;4.170;2022-11-04T02:05:42;5.23;;;2.93;;
5967;SDS011;3010;51.028;4.170;2022-11-04T02:08:09;11.18;;;3.90;;
5967;SDS011;3010;51.028;4.170;2022-11-04T02:10:35;5.30;;;3.23;;
5967;SDS011;3010;51.028;4.170;2022-11-04T02:13:02;13.63;;;3.97;;
5967;SDS011;3010;51.028;4.170;2022-11-04T02:20:47;9.10;;;3.27;;
5967;SDS011;3010;51.028;4.170;2022-11-04T02:31:45;12.57;;;3.77;;
5967;SDS011;3010;51.028;4.170;2022-11-04T02:34:23;10.53;;;4.33;;
5967;SDS011;3010;51.028;4.170;2022-11-04T02:36:52;14.60;;;3.80;;
5967;SDS011;3010;51.028;4.170;2022-11-04T02:39:20;15.80;;;3.87;;
5967;SDS011;3010;51.028;4.170;2022-11-04T02:41:45;12.80;;;3.40;;
5967;SDS011;3010;51.028;4.170;2022-11-04T02:44:39;11.20;;;3.67;;
5967;SDS011;3010;51.028;4.170;2022-11-04T02:47:16;18.40;;;3.93;;
5967;SDS011;3010;51.028;4.170;2022-11-04T02:49:43;7.77;;;3.50;;
5967;SDS011;3010;51.028;4.170;2022-11-04T02:52:11;7.47;;;3.43;;
5967;SDS011;3010;51.028;4.170;2022-11-04T02:54:47;10.17;;;4.00;;
5967;SDS011;3010;51.028;4.170;2022-11-04T02:57:16;18.10;;;4.63;;
5967;SDS011;3010;51.028;4.170;2022-11-04T02:59:45;11.10;;;4.37;;
5967;SDS011;3010;51.028;4.170;2022-11-04T03:02:15;14.63;;;4.37;;
5967;SDS011;3010;51.028;4.170;2022-11-04T03:04:45;9.10;;;3.57;;
5967;SDS011;3010;51.028;4.170;2022-11-04T03:07:11;12.40;;;4.30;;
5967;SDS011;3010;51.028;4.170;2022-11-04T03:09:37;10.63;;;4.10;;
5967;SDS011;3010;51.028;4.170;2022-11-04T03:12:05;7.43;;;3.93;;
5967;SDS011;3010;51.028;4.170;2022-11-04T03:14:33;11.80;;;4.03;;
5967;SDS011;3010;51.028;4.170;2022-11-04T03:16:58;10.47;;;4.13;;
5967;SDS011;3010;51.028;4.170;2022-11-04T03:22:08;12.05;;;5.40;;
5967;SDS011;3010;51.028;4.170;2022-11-04T03:24:28;18.73;;;5.10;;
5967;SDS011;3010;51.028;4.170;2022-11-04T03:26:59;14.25;;;5.70;;
5967;SDS011;3010;51.028;4.170;2022-11-04T03:32:00;13.33;;;4.47;;
5967;SDS011;3010;51.028;4.170;2022-11-04T03:34:32;12.80;;;4.73;;
5967;SDS011;3010;51.028;4.170;2022-11-04T03:36:59;12.63;;;4.60;;
5967;SDS011;3010;51.028;4.170;2022-11-04T03:39:26;10.37;;;4.20;;
5967;SDS011;3010;51.028;4.170;2022-11-04T03:41:56;9.00;;;4.67;;
5967;SDS011;3010;51.028;4.170;2022-11-04T03:44:22;14.17;;;4.90;;
5967;SDS011;3010;51.028;4.170;2022-11-04T03:46:49;10.93;;;4.87;;
5967;SDS011;3010;51.028;4.170;2022-11-04T03:49:15;8.37;;;4.60;;
5967;SDS011;3010;51.028;4.170;2022-11-04T03:51:41;7.47;;;5.20;;
5967;SDS011;3010;51.028;4.170;2022-11-04T03:54:08;15.63;;;5.43;;
5967;SDS011;3010;51.028;4.170;2022-11-04T04:06:56;20.43;;;6.43;;
5967;SDS011;3010;51.028;4.170;2022-11-04T04:09:22;16.40;;;7.95;;
5967;SDS011;3010;51.028;4.170;2022-11-04T04:14:48;11.90;;;6.47;;
5967;SDS011;3010;51.028;4.170;2022-11-04T04:17:20;20.17;;;7.00;;
5967;SDS011;3010;51.028;4.170;2022-11-04T04:19:57;14.23;;;6.37;;
5967;SDS011;3010;51.028;4.170;2022-11-04T04:22:36;12.43;;;6.70;;
5967;SDS011;3010;51.028;4.170;2022-11-04T04:25:02;9.97;;;6.17;;
5967;SDS011;3010;51.028;4.170;2022-11-04T04:27:45;20.12;;;9.85;;
5967;SDS011;3010;51.028;4.170;2022-11-04T04:30:13;16.93;;;7.93;;
5967;SDS011;3010;51.028;4.170;2022-11-04T04:32:49;17.50;;;7.57;;
5967;SDS011;3010;51.028;4.170;2022-11-04T04:35:14;21.43;;;7.43;;
5967;SDS011;3010;51.028;4.170;2022-11-04T04:38:00;20.40;;;7.10;;
5967;SDS011;3010;51.028;4.170;2022-11-04T04:40:25;22.23;;;8.03;;
5967;SDS011;3010;51.028;4.170;2022-11-04T04:43:13;18.43;;;7.97;;
5967;SDS011;3010;51.028;4.170;2022-11-04T04:45:55;23.42;;;10.32;;
5967;SDS011;3010;51.028;4.170;2022-11-04T04:48:22;20.13;;;8.43;;
5967;SDS011;3010;51.028;4.170;2022-11-04T04:50:49;15.17;;;8.17;;
5967;SDS011;3010;51.028;4.170;2022-11-04T04:53:15;14.60;;;8.00;;
5967;SDS011;3010;51.028;4.170;2022-11-04T04:55:41;16.97;;;8.27;;
5967;SDS011;3010;51.028;4.170;2022-11-04T04:58:08;19.67;;;8.50;;
5967;SDS011;3010;51.028;4.170;2022-11-04T05:00:34;20.30;;;11.32;;
5967;SDS011;3010;51.028;4.170;2022-11-04T05:03:01;15.07;;;8.80;;
5967;SDS011;3010;51.028;4.170;2022-11-04T05:05:28;19.77;;;8.03;;
5967;SDS011;3010;51.028;4.170;2022-11-04T05:07:54;16.97;;;8.37;;
5967;SDS011;3010;51.028;4.170;2022-11-04T05:10:21;23.23;;;8.83;;
5967;SDS011;3010;51.028;4.170;2022-11-04T05:12:47;17.17;;;8.77;;
5967;SDS011;3010;51.028;4.170;2022-11-04T05:15:32;15.87;;;8.70;;
5967;SDS011;3010;51.028;4.170;2022-11-04T05:17:59;18.70;;;9.00;;
5967;SDS011;3010;51.028;4.170;2022-11-04T05:20:26;16.17;;;8.93;;
5967;SDS011;3010;51.028;4.170;2022-11-04T05:22:53;16.77;;;8.70;;
5967;SDS011;3010;51.028;4.170;2022-11-04T05:25:19;15.47;;;8.33;;
5967;SDS011;3010;51.028;4.170;2022-11-04T05:27:45;24.97;;;8.87;;
5967;SDS011;3010;51.028;4.170;2022-11-04T05:30:12;22.95;;;11.88;;
5967;SDS011;3010;51.028;4.170;2022-11-04T05:32:38;18.40;;;8.80;;
5967;SDS011;3010;51.028;4.170;2022-11-04T05:35:05;21.65;;;11.85;;
5967;SDS011;3010;51.028;4.170;2022-11-04T05:37:31;16.37;;;9.50;;
5967;SDS011;3010;51.028;4.170;2022-11-04T05:39:58;18.20;;;8.90;;
5967;SDS011;3010;51.028;4.170;2022-11-04T05:42:25;15.90;;;7.97;;
5967;SDS011;3010;51.028;4.170;2022-11-04T05:44:51;17.92;;;10.50;;
5967;SDS011;3010;51.028;4.170;2022-11-04T05:47:18;20.80;;;9.00;;
5967;SDS011;3010;51.028;4.170;2022-11-04T05:49:44;18.50;;;8.53;;
5967;SDS011;3010;51.028;4.170;2022-11-04T05:52:11;12.87;;;8.27;;
5967;SDS011;3010;51.028;4.170;2022-11-04T05:54:38;22.90;;;11.15;;
5967;SDS011;3010;51.028;4.170;2022-11-04T05:57:04;17.90;;;7.87;;
5967;SDS011;3010;51.028;4.170;2022-11-04T05:59:31;21.03;;;8.53;;
5967;SDS011;3010;51.028;4.170;2022-11-04T06:01:57;17.70;;;8.73;;
5967;SDS011;3010;51.028;4.170;2022-11-04T06:04:24;14.50;;;8.43;;
5967;SDS011;3010;51.028;4.170;2022-11-04T06:06:51;16.70;;;8.70;;
5967;SDS011;3010;51.028;4.170;2022-11-04T06:09:17;16.10;;;9.40;;
5967;SDS011;3010;51.028;4.170;2022-11-04T06:11:44;22.50;;;14.87;;
5967;SDS011;3010;51.028;4.170;2022-11-04T06:14:11;23.73;;;15.00;;
5967;SDS011;3010;51.028;4.170;2022-11-04T06:16:37;24.37;;;15.30;;
5967;SDS011;3010;51.028;4.170;2022-11-04T06:19:03;22.43;;;11.23;;
5967;SDS011;3010;51.028;4.170;2022-11-04T06:21:31;17.57;;;7.77;;
5967;SDS011;3010;51.028;4.170;2022-11-04T06:23:57;19.90;;;9.90;;
5967;SDS011;3010;51.028;4.170;2022-11-04T06:26:24;20.63;;;9.40;;
5967;SDS011;3010;51.028;4.170;2022-11-04T06:28:50;21.20;;;8.90;;
5967;SDS011;3010;51.028;4.170;2022-11-04T06:31:16;19.23;;;9.03;;
5967;SDS011;3010;51.028;4.170;2022-11-04T06:33:43;21.10;;;8.70;;
5967;SDS011;3010;51.028;4.170;2022-11-04T06:36:11;20.17;;;8.67;;
5967;SDS011;3010;51.028;4.170;2022-11-04T06:38:36;22.00;;;8.70;;
5967;SDS011;3010;51.028;4.170;2022-11-04T06:41:04;18.90;;;8.30;;
5967;SDS011;3010;51.028;4.170;2022-11-04T06:43:32;20.23;;;9.03;;
5967;SDS011;3010;51.028;4.170;2022-11-04T06:45:59;18.60;;;8.27;;
5967;SDS011;3010;51.028;4.170;2022-11-04T06:48:25;18.27;;;7.70;;
5967;SDS011;3010;51.028;4.170;2022-11-04T06:50:52;20.10;;;10.27;;
5967;SDS011;3010;51.028;4.170;2022-11-04T06:53:18;20.37;;;9.37;;
5967;SDS011;3010;51.028;4.170;2022-11-04T06:55:45;19.90;;;8.13;;
5967;SDS011;3010;51.028;4.170;2022-11-04T06:58:11;16.37;;;7.80;;
5967;SDS011;3010;51.028;4.170;2022-11-04T07:00:38;20.65;;;9.77;;
5967;SDS011;3010;51.028;4.170;2022-11-04T07:03:05;15.13;;;8.30;;
5967;SDS011;3010;51.028;4.170;2022-11-04T07:05:32;20.30;;;7.73;;
5967;SDS011;3010;51.028;4.170;2022-11-04T07:07:58;17.07;;;7.77;;
5967;SDS011;3010;51.028;4.170;2022-11-04T07:10:24;14.03;;;7.73;;
5967;SDS011;3010;51.028;4.170;2022-11-04T07:12:51;11.37;;;7.70;;
5967;SDS011;3010;51.028;4.170;2022-11-04T07:15:18;14.43;;;7.40;;
5967;SDS011;3010;51.028;4.170;2022-11-04T07:17:44;18.87;;;7.57;;
5967;SDS011;3010;51.028;4.170;2022-11-04T07:20:11;20.75;;;9.77;;
5967;SDS011;3010;51.028;4.170;2022-11-04T07:22:37;17.90;;;8.17;;
5967;SDS011;3010;51.028;4.170;2022-11-04T07:25:04;21.98;;;10.30;;
5967;SDS011;3010;51.028;4.170;2022-11-04T07:27:31;13.13;;;7.87;;
5967;SDS011;3010;51.028;4.170;2022-11-04T07:29:57;14.33;;;7.63;;
5967;SDS011;3010;51.028;4.170;2022-11-04T07:32:24;16.47;;;7.83;;
5967;SDS011;3010;51.028;4.170;2022-11-04T07:34:50;13.13;;;7.73;;
5967;SDS011;3010;51.028;4.170;2022-11-04T07:37:17;19.35;;;11.00;;
5967;SDS011;3010;51.028;4.170;2022-11-04T07:39:44;16.93;;;9.30;;
5967;SDS011;3010;51.028;4.170;2022-11-04T07:42:10;18.20;;;9.80;;
5967;SDS011;3010;51.028;4.170;2022-11-04T07:44:37;20.50;;;9.70;;
5967;SDS011;3010;51.028;4.170;2022-11-04T07:47:03;18.53;;;9.80;;
5967;SDS011;3010;51.028;4.170;2022-11-04T07:49:30;23.23;;;10.33;;
5967;SDS011;3010;51.028;4.170;2022-11-04T07:51:57;27.23;;;14.52;;
5967;SDS011;3010;51.028;4.170;2022-11-04T07:54:23;25.03;;;11.87;;
5967;SDS011;3010;51.028;4.170;2022-11-04T07:56:50;15.80;;;10.33;;
5967;SDS011;3010;51.028;4.170;2022-11-04T07:59:16;17.03;;;9.43;;
5967;SDS011;3010;51.028;4.170;2022-11-04T08:01:43;20.73;;;9.67;;
5967;SDS011;3010;51.028;4.170;2022-11-04T08:04:10;20.33;;;9.27;;
5967;SDS011;3010;51.028;4.170;2022-11-04T08:06:36;22.77;;;8.77;;
5967;SDS011;3010;51.028;4.170;2022-11-04T08:09:03;19.77;;;9.27;;
5967;SDS011;3010;51.028;4.170;2022-11-04T08:11:29;19.17;;;9.07;;
5967;SDS011;3010;51.028;4.170;2022-11-04T08:13:56;14.10;;;8.33;;
5967;SDS011;3010;51.028;4.170;2022-11-04T08:16:23;15.53;;;9.50;;
5967;SDS011;3010;51.028;4.170;2022-11-04T08:18:49;14.80;;;8.53;;
5967;SDS011;3010;51.028;4.170;2022-11-04T08:21:16;19.27;;;9.60;;
5967;SDS011;3010;51.028;4.170;2022-11-04T08:23:42;20.83;;;9.67;;
5967;SDS011;3010;51.028;4.170;2022-11-04T08:26:10;16.33;;;9.17;;
5967;SDS011;3010;51.028;4.170;2022-11-04T08:28:35;17.17;;;9.37;;
5967;SDS011;3010;51.028;4.170;2022-11-04T08:31:24;19.37;;;9.73;;
5967;SDS011;3010;51.028;4.170;2022-11-04T08:33:31;20.80;;;9.77;;
5967;SDS011;3010;51.028;4.170;2022-11-04T08:35:59;23.20;;;10.93;;
5967;SDS011;3010;51.028;4.170;2022-11-04T08:38:28;23.12;;;11.60;;
5967;SDS011;3010;51.028;4.170;2022-11-04T08:40:58;21.67;;;10.23;;
5967;SDS011;3010;51.028;4.170;2022-11-04T08:43:24;22.50;;;9.67;;
5967;SDS011;3010;51.028;4.170;2022-11-04T08:45:51;19.77;;;9.90;;
5967;SDS011;3010;51.028;4.170;2022-11-04T08:48:18;15.17;;;8.90;;
5967;SDS011;3010;51.028;4.170;2022-11-04T08:50:47;13.33;;;8.17;;
5967;SDS011;3010;51.028;4.170;2022-11-04T08:53:10;19.07;;;7.97;;
5967;SDS011;3010;51.028;4.170;2022-11-04T08:55:37;19.40;;;8.10;;
5967;SDS011;3010;51.028;4.170;2022-11-04T08:58:04;13.90;;;7.77;;
5967;SDS011;3010;51.028;4.170;2022-11-04T09:00:30;18.57;;;9.30;;
5967;SDS011;3010;51.028;4.170;2022-11-04T09:02:57;13.97;;;8.80;;
5967;SDS011;3010;51.028;4.170;2022-11-04T09:05:23;13.80;;;8.70;;
5967;SDS011;3010;51.028;4.170;2022-11-04T09:07:50;17.83;;;8.87;;
5967;SDS011;3010;51.028;4.170;2022-11-04T09:10:17;13.63;;;8.50;;
5967;SDS011;3010;51.028;4.170;2022-11-04T09:12:43;12.97;;;8.53;;
5967;SDS011;3010;51.028;4.170;2022-11-04T09:15:10;16.27;;;9.43;;
5967;SDS011;3010;51.028;4.170;2022-11-04T09:17:36;21.47;;;10.10;;
5967;SDS011;3010;51.028;4.170;2022-11-04T09:20:03;18.13;;;9.60;;
5967;SDS011;3010;51.028;4.170;2022-11-04T09:22:30;19.53;;;10.73;;
5967;SDS011;3010;51.028;4.170;2022-11-04T09:24:56;16.00;;;9.50;;
5967;SDS011;3010;51.028;4.170;2022-11-04T09:27:23;17.58;;;8.93;;
5967;SDS011;3010;51.028;4.170;2022-11-04T09:29:49;17.80;;;9.00;;
5967;SDS011;3010;51.028;4.170;2022-11-04T09:32:16;9.57;;;7.93;;
5967;SDS011;3010;51.028;4.170;2022-11-04T09:34:43;19.13;;;8.13;;
5967;SDS011;3010;51.028;4.170;2022-11-04T09:37:09;17.37;;;8.03;;
5967;SDS011;3010;51.028;4.170;2022-11-04T09:39:36;14.40;;;7.57;;
5967;SDS011;3010;51.028;4.170;2022-11-04T09:47:00;14.20;;;8.50;;
5967;SDS011;3010;51.028;4.170;2022-11-04T09:49:37;9.10;;;7.93;;
5967;SDS011;3010;51.028;4.170;2022-11-04T09:52:00;14.50;;;7.83;;
5967;SDS011;3010;51.028;4.170;2022-11-04T09:54:33;12.57;;;7.17;;
5967;SDS011;3010;51.028;4.170;2022-11-04T09:57:17;14.17;;;7.63;;
5967;SDS011;3010;51.028;4.170;2022-11-04T09:59:43;14.27;;;7.03;;
5967;SDS011;3010;51.028;4.170;2022-11-04T10:10:28;16.63;;;8.30;;
5967;SDS011;3010;51.028;4.170;2022-11-04T10:23:49;13.50;;;8.52;;
5967;SDS011;3010;51.028;4.170;2022-11-04T10:26:17;20.37;;;9.40;;
5967;SDS011;3010;51.028;4.170;2022-11-04T10:28:46;15.53;;;8.80;;
5967;SDS011;3010;51.028;4.170;2022-11-04T10:31:16;14.60;;;8.43;;
5967;SDS011;3010;51.028;4.170;2022-11-04T10:33:45;13.47;;;8.20;;
5967;SDS011;3010;51.028;4.170;2022-11-04T10:36:10;10.80;;;8.10;;
5967;SDS011;3010;51.028;4.170;2022-11-04T10:38:41;13.13;;;8.73;;
5967;SDS011;3010;51.028;4.170;2022-11-04T10:41:19;12.97;;;9.23;;
5967;SDS011;3010;51.028;4.170;2022-11-04T10:44:00;12.47;;;8.47;;
5967;SDS011;3010;51.028;4.170;2022-11-04T10:46:35;12.63;;;8.10;;
5967;SDS011;3010;51.028;4.170;2022-11-04T10:49:11;14.43;;;8.50;;
5967;SDS011;3010;51.028;4.170;2022-11-04T10:51:49;14.00;;;8.77;;
5967;SDS011;3010;51.028;4.170;2022-11-04T10:54:16;14.40;;;8.47;;
5967;SDS011;3010;51.028;4.170;2022-11-04T10:56:46;15.87;;;8.73;;
5967;SDS011;3010;51.028;4.170;2022-11-04T10:59:21;15.90;;;9.07;;
5967;SDS011;3010;51.028;4.170;2022-11-04T11:01:48;12.00;;;9.73;;
5967;SDS011;3010;51.028;4.170;2022-11-04T11:04:22;13.30;;;10.07;;
5967;SDS011;3010;51.028;4.170;2022-11-04T11:06:41;18.27;;;11.53;;
5967;SDS011;3010;51.028;4.170;2022-11-04T11:11:44;15.20;;;11.23;;
5967;SDS011;3010;51.028;4.170;2022-11-04T11:16:54;13.57;;;9.93;;
5967;SDS011;3010;51.028;4.170;2022-11-04T11:19:22;13.17;;;9.60;;
5967;SDS011;3010;51.028;4.170;2022-11-04T11:21:51;12.80;;;10.13;;
5967;SDS011;3010;51.028;4.170;2022-11-04T11:24:20;18.67;;;10.87;;
5967;SDS011;3010;51.028;4.170;2022-11-04T11:26:48;14.33;;;10.00;;
5967;SDS011;3010;51.028;4.170;2022-11-04T11:29:15;16.27;;;10.80;;
5967;SDS011;3010;51.028;4.170;2022-11-04T11:31:39;12.53;;;10.77;;
5967;SDS011;3010;51.028;4.170;2022-11-04T11:34:13;15.90;;;11.33;;
5967;SDS011;3010;51.028;4.170;2022-11-04T11:36:33;17.07;;;12.70;;
5967;SDS011;3010;51.028;4.170;2022-11-04T11:39:03;17.90;;;11.97;;
5967;SDS011;3010;51.028;4.170;2022-11-04T11:41:29;15.60;;;11.83;;
5967;SDS011;3010;51.028;4.170;2022-11-04T11:44:00;16.23;;;13.93;;
5967;SDS011;3010;51.028;4.170;2022-11-04T11:46:28;19.48;;;14.30;;
5967;SDS011;3010;51.028;4.170;2022-11-04T11:48:52;17.27;;;12.77;;
5967;SDS011;3010;51.028;4.170;2022-11-04T11:51:25;21.00;;;13.27;;
5967;SDS011;3010;51.028;4.170;2022-11-04T11:56:43;20.80;;;13.80;;
5967;SDS011;3010;51.028;4.170;2022-11-04T11:59:19;22.57;;;14.73;;
5967;SDS011;3010;51.028;4.170;2022-11-04T12:01:48;17.03;;;12.77;;
5967;SDS011;3010;51.028;4.170;2022-11-04T12:04:19;22.75;;;16.80;;
5967;SDS011;3010;51.028;4.170;2022-11-04T12:15:06;20.07;;;14.00;;
5967;SDS011;3010;51.028;4.170;2022-11-04T12:20:38;17.17;;;13.97;;
5967;SDS011;3010;51.028;4.170;2022-11-04T12:26:23;22.27;;;13.13;;
5967;SDS011;3010;51.028;4.170;2022-11-04T12:31:49;16.43;;;12.23;;
5967;SDS011;3010;51.028;4.170;2022-11-04T12:34:29;15.60;;;11.53;;
5967;SDS011;3010;51.028;4.170;2022-11-04T12:42:26;14.10;;;12.10;;
5967;SDS011;3010;51.028;4.170;2022-11-04T12:45:29;16.40;;;12.15;;
5967;SDS011;3010;51.028;4.170;2022-11-04T12:47:34;13.57;;;11.13;;
5967;SDS011;3010;51.028;4.170;2022-11-04T12:53:18;13.68;;;10.80;;
5967;SDS011;3010;51.028;4.170;2022-11-04T12:56:03;10.93;;;9.83;;
5967;SDS011;3010;51.028;4.170;2022-11-04T12:58:40;18.07;;;10.07;;
5967;SDS011;3010;51.028;4.170;2022-11-04T13:06:26;12.00;;;8.80;;
5967;SDS011;3010;51.028;4.170;2022-11-04T13:08:58;10.50;;;7.93;;
5967;SDS011;3010;51.028;4.170;2022-11-04T13:11:37;12.23;;;7.77;;
5967;SDS011;3010;51.028;4.170;2022-11-04T13:16:41;9.83;;;6.77;;
5967;SDS011;3010;51.028;4.170;2022-11-04T13:19:11;10.60;;;7.13;;
5967;SDS011;3010;51.028;4.170;2022-11-04T13:21:34;25.43;;;7.27;;
5967;SDS011;3010;51.028;4.170;2022-11-04T13:24:01;9.53;;;6.00;;
5967;SDS011;3010;51.028;4.170;2022-11-04T13:26:27;12.63;;;6.40;;
5967;SDS011;3010;51.028;4.170;2022-11-04T13:28:55;18.53;;;6.60;;
5967;SDS011;3010;51.028;4.170;2022-11-04T13:31:28;10.57;;;5.90;;
5967;SDS011;3010;51.028;4.170;2022-11-04T13:34:00;4.60;;;4.20;;
5967;SDS011;3010;51.028;4.170;2022-11-04T13:36:44;7.20;;;4.47;;
5967;SDS011;3010;51.028;4.170;2022-11-04T13:39:22;6.97;;;4.57;;
5967;SDS011;3010;51.028;4.170;2022-11-04T13:44:22;5.33;;;4.30;;
5967;SDS011;3010;51.028;4.170;2022-11-04T13:46:50;2.07;;;1.97;;
5967;SDS011;3010;51.028;4.170;2022-11-04T13:51:43;1.17;;;1.07;;
5967;SDS011;3010;51.028;4.170;2022-11-04T13:54:26;3.87;;;2.00;;
5967;SDS011;3010;51.028;4.170;2022-11-04T13:57:55;3.70;;;1.50;;
5967;SDS011;3010;51.028;4.170;2022-11-04T13:59:29;1.47;;;1.37;;
5967;SDS011;3010;51.028;4.170;2022-11-04T14:04:41;1.77;;;1.07;;
5967;SDS011;3010;51.028;4.170;2022-11-04T14:07:07;2.63;;;1.43;;
5967;SDS011;3010;51.028;4.170;2022-11-04T14:09:35;1.17;;;1.07;;
5967;SDS011;3010;51.028;4.170;2022-11-04T14:14:45;3.23;;;1.63;;
5967;SDS011;3010;51.028;4.170;2022-11-04T14:22:29;4.53;;;1.90;;
5967;SDS011;3010;51.028;4.170;2022-11-04T14:24:55;4.03;;;2.37;;
5967;SDS011;3010;51.028;4.170;2022-11-04T14:27:22;2.97;;;2.10;;
5967;SDS011;3010;51.028;4.170;2022-11-04T14:29:48;2.90;;;2.80;;
5967;SDS011;3010;51.028;4.170;2022-11-04T14:32:17;3.00;;;2.90;;
5967;SDS011;3010;51.028;4.170;2022-11-04T14:34:41;2.80;;;2.70;;
5967;SDS011;3010;51.028;4.170;2022-11-04T14:37:18;3.30;;;3.00;;
5967;SDS011;3010;51.028;4.170;2022-11-04T14:39:40;3.30;;;3.00;;
5967;SDS011;3010;51.028;4.170;2022-11-04T14:42:07;4.90;;;4.60;;
5967;SDS011;3010;51.028;4.170;2022-11-04T14:44:35;4.37;;;3.97;;
5967;SDS011;3010;51.028;4.170;2022-11-04T14:47:12;5.00;;;4.70;;
5967;SDS011;3010;51.028;4.170;2022-11-04T14:49:47;3.63;;;3.50;;
5967;SDS011;3010;51.028;4.170;2022-11-04T14:52:29;3.27;;;2.87;;
5967;SDS011;3010;51.028;4.170;2022-11-04T14:55:05;4.10;;;3.23;;
5967;SDS011;3010;51.028;4.170;2022-11-04T14:57:35;3.23;;;3.03;;
5967;SDS011;3010;51.028;4.170;2022-11-04T14:59:57;3.97;;;3.67;;
5967;SDS011;3010;51.028;4.170;2022-11-04T15:02:24;4.67;;;3.27;;
5967;SDS011;3010;51.028;4.170;2022-11-04T15:05:00;4.43;;;3.20;;
5967;SDS011;3010;51.028;4.170;2022-11-04T15:07:24;3.73;;;3.37;;
5967;SDS011;3010;51.028;4.170;2022-11-04T15:09:49;4.10;;;3.30;;
5967;SDS011;3010;51.028;4.170;2022-11-04T15:12:17;3.97;;;3.47;;
5967;SDS011;3010;51.028;4.170;2022-11-04T15:15:00;4.03;;;3.53;;
5967;SDS011;3010;51.028;4.170;2022-11-04T15:17:28;3.70;;;3.50;;
5967;SDS011;3010;51.028;4.170;2022-11-04T15:19:54;5.67;;;3.73;;
5967;SDS011;3010;51.028;4.170;2022-11-04T15:22:20;3.90;;;3.60;;
5967;SDS011;3010;51.028;4.170;2022-11-04T15:24:47;6.50;;;3.00;;
5967;SDS011;3010;51.028;4.170;2022-11-04T15:27:16;4.13;;;2.70;;
5967;SDS011;3010;51.028;4.170;2022-11-04T15:29:40;4.10;;;2.67;;
5967;SDS011;3010;51.028;4.170;2022-11-04T15:32:14;6.53;;;2.37;;
5967;SDS011;3010;51.028;4.170;2022-11-04T15:34:33;4.20;;;2.40;;
5967;SDS011;3010;51.028;4.170;2022-11-04T15:37:01;3.57;;;2.73;;
5967;SDS011;3010;51.028;4.170;2022-11-04T15:39:30;7.50;;;2.87;;
5967;SDS011;3010;51.028;4.170;2022-11-04T15:42:05;3.63;;;2.97;;
5967;SDS011;3010;51.028;4.170;2022-11-04T15:44:50;8.73;;;2.83;;
5967;SDS011;3010;51.028;4.170;2022-11-04T15:49:42;2.57;;;2.33;;
5967;SDS011;3010;51.028;4.170;2022-11-04T15:52:13;3.73;;;2.50;;
5967;SDS011;3010;51.028;4.170;2022-11-04T15:54:38;3.63;;;2.40;;
5967;SDS011;3010;51.028;4.170;2022-11-04T15:57:14;2.57;;;2.43;;
5967;SDS011;3010;51.028;4.170;2022-11-04T15:59:37;3.33;;;2.92;;
5967;SDS011;3010;51.028;4.170;2022-11-04T16:02:04;4.20;;;2.70;;
5967;SDS011;3010;51.028;4.170;2022-11-04T16:04:30;4.73;;;2.70;;
5967;SDS011;3010;51.028;4.170;2022-11-04T16:09:49;3.83;;;3.07;;
5967;SDS011;3010;51.028;4.170;2022-11-04T16:12:15;4.40;;;3.30;;
5967;SDS011;3010;51.028;4.170;2022-11-04T16:14:47;6.03;;;3.50;;
5967;SDS011;3010;51.028;4.170;2022-11-04T16:17:13;6.13;;;4.27;;
5967;SDS011;3010;51.028;4.170;2022-11-04T16:19:39;6.73;;;4.20;;
5967;SDS011;3010;51.028;4.170;2022-11-04T16:22:07;5.57;;;4.27;;
5967;SDS011;3010;51.028;4.170;2022-11-04T16:24:39;5.10;;;4.60;;
5967;SDS011;3010;51.028;4.170;2022-11-04T16:27:02;9.57;;;6.18;;
5967;SDS011;3010;51.028;4.170;2022-11-04T16:29:29;7.77;;;6.97;;
5967;SDS011;3010;51.028;4.170;2022-11-04T16:34:54;6.03;;;5.53;;
5967;SDS011;3010;51.028;4.170;2022-11-04T16:37:19;5.43;;;4.87;;
5967;SDS011;3010;51.028;4.170;2022-11-04T16:39:45;9.20;;;5.50;;
5967;SDS011;3010;51.028;4.170;2022-11-04T16:42:12;5.93;;;5.37;;
5967;SDS011;3010;51.028;4.170;2022-11-04T16:44:38;5.67;;;4.37;;
5967;SDS011;3010;51.028;4.170;2022-11-04T16:47:05;5.53;;;5.00;;
5967;SDS011;3010;51.028;4.170;2022-11-04T16:49:31;11.27;;;5.00;;
5967;SDS011;3010;51.028;4.170;2022-11-04T16:52:01;6.60;;;5.87;;
5967;SDS011;3010;51.028;4.170;2022-11-04T16:54:28;14.40;;;8.50;;
5967;SDS011;3010;51.028;4.170;2022-11-04T16:56:54;12.37;;;8.43;;
5967;SDS011;3010;51.028;4.170;2022-11-04T16:59:21;9.27;;;8.10;;
5967;SDS011;3010;51.028;4.170;2022-11-04T17:01:47;12.90;;;7.17;;
5967;SDS011;3010;51.028;4.170;2022-11-04T17:04:14;8.70;;;7.50;;
5967;SDS011;3010;51.028;4.170;2022-11-04T17:06:40;12.90;;;8.67;;
5967;SDS011;3010;51.028;4.170;2022-11-04T17:09:41;11.77;;;8.07;;
5967;SDS011;3010;51.028;4.170;2022-11-04T17:11:42;9.83;;;8.40;;
5967;SDS011;3010;51.028;4.170;2022-11-04T17:14:09;10.70;;;8.10;;
5967;SDS011;3010;51.028;4.170;2022-11-04T17:16:36;10.43;;;8.37;;